TAF Text Data
IDs:
Format:
Raw Decoded Include METAR

Data at: 2152 UTC 23 Apr 2019

TAF for:KDEN (Denver Intl, CO, US) issued at 2005 UTC 23 Apr 2019
Text:KDEN 232005Z 2320/2424 33006KT P6SM FEW045 SCT060 SCT220
Forecast period:2000 UTC 23 April 2019 to 0200 UTC 24 April 2019
Forecast type:FROM: standard forecast or significant change
Winds:from the NNW (330 degrees) at 7 MPH (6 knots; 3.1 m/s)
Visibility:6 or more sm (10+ km)
Ceiling:at least 12,000 feet AGL
Clouds: few clouds at 4500 feet AGL, scattered clouds at 6000 feet AGL, scattered clouds at 22000 feet AGL
Text:FM240200 20010KT P6SM SKC
Forecast period:0200 to 0900 UTC 24 April 2019
Forecast type:FROM: standard forecast or significant change
Winds:from the SSW (200 degrees) at 12 MPH (10 knots; 5.1 m/s)
Visibility:6 or more sm (10+ km)
Ceiling:at least 12,000 feet AGL
Clouds:clear skies
Text:FM240900 24008KT P6SM SKC
Forecast period:0900 to 1800 UTC 24 April 2019
Forecast type:FROM: standard forecast or significant change
Winds:from the WSW (240 degrees) at 9 MPH (8 knots; 4.1 m/s)
Visibility:6 or more sm (10+ km)
Ceiling:at least 12,000 feet AGL
Clouds:clear skies
Text:FM241800 02007KT P6SM FEW100
Forecast period:1800 UTC 24 April 2019 to 0000 UTC 25 April 2019
Forecast type:FROM: standard forecast or significant change
Winds:from the NNE (20 degrees) at 8 MPH (7 knots; 3.6 m/s)
Visibility:6 or more sm (10+ km)
Ceiling:at least 12,000 feet AGL
Clouds: few clouds at 10000 feet AGL